Time;durP1;ratioP1;P1;durP2;ratioP2;P2;SDS_P1;SDS_P2;PMS_P1;PMS_P2;Temp;Humidity;BMP_temperature;BMP_pressure;BME280_temperature;BME280_humidity;BME280_pressure;Samples;Min_cycle;Max_cycle;Signal;HPM_P1;HPM_P2
2021/06/08 00:00:31;;;;;;;32.43;29.27;;;;;;;20.20;97.42;96786.00;4993545;28;20632;-69
2021/06/08 00:02:56;;;;;;;33.40;30.13;;;;;;;20.23;97.29;96795.34;4993476;28;20441;-68
2021/06/08 00:05:22;;;;;;;33.70;30.40;;;;;;;20.24;96.99;96791.59;4997222;28;20215;-68
2021/06/08 00:07:48;;;;;;;35.10;31.70;;;;;;;20.25;96.96;96787.84;4997933;28;20179;-69
2021/06/08 00:10:15;;;;;;;35.03;31.60;;;;;;;20.25;96.78;96798.53;4997268;28;20181;-68
2021/06/08 00:12:41;;;;;;;32.97;29.57;;;;;;;20.22;97.08;96799.88;4997275;28;20409;-68
2021/06/08 00:15:08;;;;;;;34.37;30.97;;;;;;;20.25;96.91;96794.00;4995675;28;20471;-69
2021/06/08 00:17:33;;;;;;;28.57;25.77;;;;;;;20.24;96.50;96794.25;4997423;28;20221;-68
2021/06/08 00:19:59;;;;;;;32.83;29.50;;;;;;;20.27;96.60;96794.50;4997747;28;20408;-69
2021/06/08 00:22:25;;;;;;;33.73;30.20;;;;;;;20.28;96.81;96808.66;4997024;28;20184;-70
2021/06/08 00:24:51;;;;;;;36.33;32.60;;;;;;;20.31;96.28;96794.75;4996887;28;20220;-68
2021/06/08 00:27:17;;;;;;;33.43;29.97;;;;;;;20.27;96.17;96794.50;4998143;28;20437;-68
2021/06/08 00:29:42;;;;;;;34.67;31.17;;;;;;;20.23;96.33;96801.47;4996689;28;20228;-69
2021/06/08 00:32:07;;;;;;;32.63;29.43;;;;;;;20.28;96.17;96797.97;4997159;28;20181;-69
2021/06/08 00:34:33;;;;;;;32.30;29.20;;;;;;;20.23;95.94;96793.47;4997047;28;20209;-69
2021/06/08 00:36:58;;;;;;;34.33;30.93;;;;;;;20.26;96.19;96790.25;4997398;28;20178;-68
2021/06/08 00:39:24;;;;;;;33.73;30.40;;;;;;;20.30;96.00;96790.50;4996877;28;20183;-68
2021/06/08 00:41:49;;;;;;;34.63;30.83;;;;;;;20.29;95.88;96794.25;4996769;28;20180;-69
2021/06/08 00:44:16;;;;;;;31.40;28.40;;;;;;;20.29;95.95;96799.59;4996225;28;20236;-69
2021/06/08 00:46:44;;;;;;;33.77;30.43;;;;;;;20.26;96.13;96800.13;4997149;28;20205;-69
2021/06/08 00:49:10;;;;;;;30.63;27.53;;;;;;;20.31;95.72;96794.75;4996845;28;20431;-68
2021/06/08 00:51:36;;;;;;;33.37;29.90;;;;;;;20.29;96.03;96784.34;4996792;28;20413;-70
2021/06/08 00:54:07;;;;;;;36.07;32.27;;;;;;;20.24;96.03;96791.59;4996682;28;20464;-68
2021/06/08 00:56:34;;;;;;;32.30;29.30;;;;;;;20.26;95.82;96784.91;4996611;28;20460;-69
2021/06/08 00:59:00;;;;;;;33.57;30.17;;;;;;;20.26;96.01;96790.25;4988485;28;20427;-69
2021/06/08 01:01:25;;;;;;;37.10;32.43;;;;;;;20.27;95.54;96786.50;4995771;28;20429;-70
2021/06/08 01:03:50;;;;;;;34.60;31.00;;;;;;;20.21;95.90;96792.94;4996611;28;20185;-69
2021/06/08 01:06:16;;;;;;;32.50;29.00;;;;;;;20.12;96.44;96791.09;4996334;28;20192;-69
2021/06/08 01:08:41;;;;;;;35.50;31.97;;;;;;;20.10;96.72;96782.56;4996376;28;20268;-69
2021/06/08 01:11:07;;;;;;;33.00;29.47;;;;;;;20.06;96.83;96785.00;4996382;28;20188;-68
2021/06/08 01:13:32;;;;;;;34.60;31.00;;;;;;;19.88;97.69;96776.81;4996205;28;20424;-68
2021/06/08 01:15:58;;;;;;;32.33;28.90;;;;;;;19.91;97.08;96779.72;4992663;28;20185;-69
2021/06/08 01:18:23;;;;;;;34.57;30.70;;;;;;;19.85;97.21;96769.34;4996641;28;20209;-68
2021/06/08 01:20:58;;;;;;;31.47;28.33;;;;;;;19.78;97.26;96758.19;4996090;28;20185;-68
2021/06/08 01:23:24;;;;;;;32.87;29.67;;;;;;;19.82;97.38;96768.03;4996115;28;20201;-68
2021/06/08 01:25:49;;;;;;;31.47;28.27;;;;;;;19.87;97.08;96764.53;4996198;28;20421;-68
2021/06/08 01:28:15;;;;;;;31.07;27.77;;;;;;;19.85;97.38;96759.50;4995752;28;20178;-68
2021/06/08 01:30:41;;;;;;;28.60;25.70;;;;;;;19.83;96.83;96750.97;4996070;28;20182;-68
2021/06/08 01:33:06;;;;;;;27.73;25.07;;;;;;;19.80;97.02;96761.38;4995840;28;20193;-68
2021/06/08 01:35:33;;;;;;;24.60;22.10;;;;;;;19.76;96.77;96763.00;4995869;28;20467;-70
2021/06/08 01:37:58;;;;;;;23.53;21.23;;;;;;;19.78;96.88;96758.19;4992526;28;20256;-68
2021/06/08 01:40:24;;;;;;;26.87;24.17;;;;;;;19.82;96.73;96765.34;4989141;28;20416;-67
2021/06/08 01:42:49;;;;;;;24.97;22.57;;;;;;;19.82;95.95;96767.25;4985512;28;20180;-69
2021/06/08 01:45:16;;;;;;;22.10;19.87;;;;;;;19.82;96.54;96775.25;4995102;28;20432;-68
2021/06/08 01:47:41;;;;;;;23.40;21.10;;;;;;;19.85;95.99;96764.81;4995333;28;20182;-69
2021/06/08 01:50:08;;;;;;;24.20;21.90;;;;;;;19.92;96.10;96765.31;4995932;28;20903;-69
2021/06/08 01:52:54;;;;;;;22.20;20.10;;;;;;;19.95;95.97;96761.28;4995515;28;20200;-68
2021/06/08 01:55:24;;;;;;;24.00;21.70;;;;;;;19.98;96.08;96768.75;4995820;28;20966;-68
2021/06/08 01:57:53;;;;;;;26.20;23.70;;;;;;;19.96;95.65;96769.03;4978447;28;20432;-68
2021/06/08 02:00:28;;;;;;;26.27;23.83;;;;;;;19.98;96.13;96766.09;4994033;28;20456;-68
2021/06/08 02:02:59;;;;;;;25.00;22.60;;;;;;;19.99;95.74;96762.34;4979429;28;20563;-68
2021/06/08 02:05:30;;;;;;;24.13;21.83;;;;;;;19.99;95.78;96768.47;4993802;28;20799;-70
2021/06/08 02:08:17;;;;;;;26.50;23.93;;;;;;;19.95;96.21;96761.28;4995712;28;20412;-69
2021/06/08 02:10:49;;;;;;;26.87;24.27;;;;;;;19.96;96.20;96765.56;4995327;28;20432;-67
2021/06/08 02:13:28;;;;;;;31.70;27.70;;;;;;;20.01;95.98;96770.88;4994590;28;20436;-70
2021/06/08 02:16:19;;;;;;;31.07;27.73;;;;;;;20.02;95.79;96767.91;4995510;28;20417;-67
2021/06/08 02:18:47;;;;;;;29.90;26.90;;;;;;;20.07;95.56;96767.13;4994466;28;20867;-67
2021/06/08 02:21:16;;;;;;;27.37;24.57;;;;;;;20.02;95.69;96773.25;4995542;28;20420;-70
2021/06/08 02:23:43;;;;;;;32.20;28.80;;;;;;;19.97;96.03;96772.50;4994361;28;20441;-67
2021/06/08 02:26:09;;;;;;;32.20;28.37;;;;;;;19.94;96.03;96771.19;4994667;28;20458;-70
2021/06/08 02:28:37;;;;;;;32.97;29.43;;;;;;;19.95;95.84;96774.63;4994671;28;20903;-67
2021/06/08 02:31:06;;;;;;;32.43;29.23;;;;;;;19.93;96.01;96777.56;4988452;28;20867;-70
2021/06/08 02:33:34;;;;;;;32.97;29.47;;;;;;;19.89;96.45;96779.19;4992926;28;20507;-70
2021/06/08 02:36:01;;;;;;;32.03;28.83;;;;;;;19.94;95.96;96781.84;4995176;28;20483;-68
2021/06/08 02:38:27;;;;;;;32.47;29.27;;;;;;;19.83;96.59;96785.63;4994789;28;20432;-68
2021/06/08 02:40:53;;;;;;;32.20;28.80;;;;;;;19.76;96.99;96779.00;4994733;28;20440;-68
2021/06/08 02:43:23;;;;;;;31.40;28.20;;;;;;;19.72;97.28;96781.41;4994009;28;20444;-68
2021/06/08 02:45:50;;;;;;;32.83;29.53;;;;;;;19.70;97.21;96774.75;4994628;28;20181;-68
2021/06/08 02:48:17;;;;;;;30.60;27.57;;;;;;;19.73;97.41;96780.31;4994730;28;20421;-70
2021/06/08 02:50:46;;;;;;;32.40;29.10;;;;;;;19.78;96.96;96779.53;4994768;28;20429;-67
2021/06/08 02:53:13;;;;;;;31.20;28.00;;;;;;;19.85;96.95;96774.69;4994127;28;20444;-68
2021/06/08 02:55:40;;;;;;;29.77;26.77;;;;;;;19.87;97.26;96780.56;4994319;28;20966;-69
2021/06/08 02:58:06;;;;;;;30.50;27.50;;;;;;;19.92;96.66;96777.84;4994992;28;20412;-67
2021/06/08 03:00:32;;;;;;;32.93;29.63;;;;;;;19.92;96.65;96778.66;4993779;28;20432;-70
2021/06/08 03:03:01;;;;;;;29.30;26.50;;;;;;;19.96;96.53;96779.72;4994201;28;20186;-68
2021/06/08 03:05:31;;;;;;;32.33;29.07;;;;;;;19.95;96.85;96783.44;4994239;28;20192;-70
2021/06/08 03:07:59;;;;;;;34.77;31.07;;;;;;;20.02;96.33;96783.16;4994545;28;20408;-70
2021/06/08 03:10:29;;;;;;;30.07;27.00;;;;;;;20.02;96.14;96781.25;4993964;28;20424;-69
2021/06/08 03:12:57;;;;;;;32.07;28.87;;;;;;;20.01;96.38;96782.34;4994081;28;20790;-68
2021/06/08 03:15:27;;;;;;;32.63;29.13;;;;;;;20.01;96.55;96786.88;4992877;28;20970;-69
2021/06/08 03:17:53;;;;;;;36.40;32.37;;;;;;;20.05;96.17;96782.59;4977368;28;20421;-69
2021/06/08 03:20:46;;;;;;;36.87;32.97;;;;;;;20.03;96.32;96782.88;4994320;28;20920;-67
2021/06/08 03:23:13;;;;;;;35.43;31.70;;;;;;;20.06;96.35;96782.31;4985512;28;20263;-68
2021/06/08 03:25:41;;;;;;;32.70;29.10;;;;;;;20.06;96.26;96776.19;4994440;28;20400;-69
2021/06/08 03:28:08;;;;;;;34.70;31.20;;;;;;;20.08;96.39;96777.50;4976524;28;20516;-69
2021/06/08 03:30:35;;;;;;;36.53;32.27;;;;;;;20.07;96.43;96780.47;4987866;28;20516;-69
2021/06/08 03:33:01;;;;;;;41.37;35.97;;;;;;;20.05;96.50;96778.06;4981027;28;20452;-67
2021/06/08 03:35:28;;;;;;;39.53;33.37;;;;;;;20.01;96.72;96782.34;4994279;28;20456;-67
2021/06/08 03:37:55;;;;;;;42.20;37.37;;;;;;;20.04;96.87;96776.44;4993611;28;20177;-68
2021/06/08 03:40:21;;;;;;;39.90;34.80;;;;;;;20.08;96.46;96776.69;4994280;28;20755;-69
2021/06/08 03:42:48;;;;;;;39.13;34.90;;;;;;;20.09;96.65;96787.09;4975914;28;20784;-68
2021/06/08 03:45:14;;;;;;;37.40;33.43;;;;;;;20.06;96.92;96779.66;4993342;28;20421;-68
2021/06/08 03:47:44;;;;;;;41.50;36.40;;;;;;;20.03;96.86;96777.53;4993818;28;20953;-70
2021/06/08 03:50:12;;;;;;;43.70;36.47;;;;;;;20.06;96.73;96782.31;4993537;28;20499;-70
2021/06/08 03:52:39;;;;;;;41.70;36.60;;;;;;;20.07;96.76;96783.94;4993553;28;20909;-69
2021/06/08 03:55:05;;;;;;;41.13;36.23;;;;;;;20.10;96.76;96780.69;4993702;28;20495;-69
2021/06/08 03:57:38;;;;;;;42.43;36.30;;;;;;;20.06;96.96;96792.19;4993545;28;20915;-68
2021/06/08 04:00:04;;;;;;;42.73;38.13;;;;;;;20.10;96.87;96785.22;4987874;28;20927;-69
2021/06/08 04:02:31;;;;;;;38.60;34.50;;;;;;;20.09;96.72;96783.66;4964129;28;20512;-70
2021/06/08 04:04:56;;;;;;;39.93;35.53;;;;;;;20.08;97.08;96792.72;4993529;28;20428;-69
2021/06/08 04:07:22;;;;;;;35.47;31.67;;;;;;;20.11;96.86;96797.53;4993975;28;20483;-71
2021/06/08 04:09:49;;;;;;;40.30;35.90;;;;;;;20.06;97.32;96795.66;4977600;28;20629;-69
2021/06/08 04:12:14;;;;;;;38.87;34.70;;;;;;;20.10;96.93;96793.25;4993448;28;20795;-69
2021/06/08 04:14:43;;;;;;;37.47;33.37;;;;;;;20.10;96.94;96801.25;4993645;28;20539;-69
2021/06/08 04:17:09;;;;;;;36.93;32.90;;;;;;;20.15;96.88;96791.34;4993506;28;20217;-68
2021/06/08 04:19:35;;;;;;;36.30;32.00;;;;;;;20.13;96.62;96806.81;4993510;28;20420;-68
2021/06/08 04:22:01;;;;;;;37.13;32.57;;;;;;;20.11;96.76;96806.31;4993473;28;20503;-70
2021/06/08 04:24:26;;;;;;;38.93;34.73;;;;;;;20.15;96.76;96803.88;4987383;28;20197;-70
2021/06/08 04:26:52;;;;;;;38.37;34.23;;;;;;;20.19;96.52;96805.78;4993842;28;20181;-68
2021/06/08 04:29:18;;;;;;;34.87;31.17;;;;;;;20.20;96.05;96801.25;4993165;28;20189;-68
2021/06/08 04:31:43;;;;;;;37.87;33.40;;;;;;;20.20;96.36;96809.25;4992514;28;20194;-70
2021/06/08 04:34:09;;;;;;;36.83;33.03;;;;;;;20.22;96.30;96812.41;4993144;28;20208;-69
2021/06/08 04:36:34;;;;;;;38.50;34.40;;;;;;;20.13;96.38;96809.50;4993279;28;20281;-70
2021/06/08 04:39:00;;;;;;;37.47;33.40;;;;;;;20.20;96.14;96812.69;4965803;28;20185;-70
2021/06/08 04:41:26;;;;;;;36.00;32.10;;;;;;;20.18;96.05;96811.38;4984691;28;20554;-71
2021/06/08 04:43:51;;;;;;;35.63;32.10;;;;;;;20.15;96.34;96817.22;4993167;28;20225;-70
2021/06/08 04:46:17;;;;;;;39.93;35.50;;;;;;;20.06;96.69;96814.34;4993445;28;20417;-69
2021/06/08 04:48:43;;;;;;;38.27;34.17;;;;;;;20.13;96.46;96809.50;4993374;28;20181;-69
2021/06/08 04:51:10;;;;;;;35.70;32.10;;;;;;;20.14;96.51;96811.09;4978442;28;20452;-68
2021/06/08 04:53:36;;;;;;;37.03;33.13;;;;;;;20.10;96.94;96818.06;4995340;28;20531;-69
2021/06/08 04:56:01;;;;;;;39.40;35.20;;;;;;;20.15;96.82;96803.88;4996799;28;20427;-70
2021/06/08 04:58:27;;;;;;;33.77;30.27;;;;;;;20.18;96.56;96808.72;4997290;28;20458;-68
2021/06/08 05:01:09;;;;;;;35.73;32.00;;;;;;;20.17;96.70;96807.91;4996675;28;20179;-70
2021/06/08 05:03:41;;;;;;;35.03;31.27;;;;;;;20.19;96.58;96812.97;4996135;28;20207;-70
2021/06/08 05:06:10;;;;;;;37.63;33.47;;;;;;;20.24;96.64;96811.06;4996653;28;20420;-69
2021/06/08 05:08:40;;;;;;;38.50;34.47;;;;;;;20.24;96.24;96810.25;4995666;28;20420;-70
2021/06/08 05:11:19;;;;;;;38.33;34.47;;;;;;;20.26;96.69;96805.47;4995720;28;20834;-70
2021/06/08 05:13:48;;;;;;;32.70;29.30;;;;;;;20.32;96.27;96810.50;4978192;28;20464;-70
2021/06/08 05:16:15;;;;;;;35.80;32.10;;;;;;;20.32;96.23;96815.84;4996695;28;20401;-68
2021/06/08 05:18:48;;;;;;;37.10;32.80;;;;;;;20.29;96.15;96812.94;4996049;28;20429;-69
2021/06/08 05:21:16;;;;;;;39.27;35.07;;;;;;;20.24;96.61;96816.41;4996484;28;20926;-69
2021/06/08 05:23:42;;;;;;;39.40;35.27;;;;;;;20.32;96.12;96809.69;4995619;28;20515;-69
2021/06/08 05:26:11;;;;;;;37.50;33.63;;;;;;;20.25;96.02;96823.38;4995558;28;20458;-69
2021/06/08 05:28:39;;;;;;;35.90;32.20;;;;;;;20.32;95.94;96825.72;4978244;28;20189;-70
2021/06/08 05:31:04;;;;;;;34.87;31.27;;;;;;;20.32;96.22;96818.53;4978952;28;20474;-69
2021/06/08 05:33:31;;;;;;;36.40;32.73;;;;;;;20.38;95.92;96822.72;4995590;28;20444;-69
2021/06/08 05:35:57;;;;;;;37.33;33.43;;;;;;;20.40;95.99;96830.47;4996250;28;20176;-68
2021/06/08 05:38:33;;;;;;;37.70;33.67;;;;;;;20.44;95.84;96828.84;4995923;28;20424;-69
2021/06/08 05:41:10;;;;;;;35.50;31.80;;;;;;;20.40;95.64;96827.78;4996077;28;20263;-69
2021/06/08 05:43:36;;;;;;;36.83;32.80;;;;;;;20.43;95.84;96829.94;4982805;28;20440;-70
2021/06/08 05:46:06;;;;;;;36.27;32.47;;;;;;;20.44;95.55;96831.50;4985328;28;20429;-70
2021/06/08 05:48:32;;;;;;;35.97;32.07;;;;;;;20.45;95.58;96835.78;4976598;28;20497;-69
2021/06/08 05:50:59;;;;;;;34.77;31.00;;;;;;;20.41;95.44;96832.88;4976585;28;20545;-68
2021/06/08 05:53:26;;;;;;;35.37;31.50;;;;;;;20.48;95.31;96836.03;4977115;28;20216;-69
2021/06/08 05:55:53;;;;;;;38.43;33.90;;;;;;;20.54;94.71;96836.81;4995722;28;20419;-69
2021/06/08 05:58:26;;;;;;;34.30;30.70;;;;;;;20.49;94.93;96839.50;4994906;28;20451;-69
2021/06/08 06:00:52;;;;;;;36.60;32.90;;;;;;;20.43;94.95;96832.59;4993874;28;20880;-70
2021/06/08 06:03:18;;;;;;;37.27;33.23;;;;;;;20.40;95.24;96835.81;4995116;28;20440;-70
2021/06/08 06:05:45;;;;;;;35.73;31.93;;;;;;;20.43;95.08;96828.06;4995527;28;20793;-68
2021/06/08 06:08:11;;;;;;;33.13;29.80;;;;;;;20.46;95.05;96832.84;4995279;28;20417;-70
2021/06/08 06:10:38;;;;;;;37.37;33.30;;;;;;;20.40;95.03;96836.59;4995076;28;20424;-69
2021/06/08 06:13:04;;;;;;;41.13;36.80;;;;;;;20.40;95.12;96841.13;4995154;28;20276;-69
2021/06/08 06:15:31;;;;;;;38.80;34.50;;;;;;;20.45;94.96;96839.25;4995453;28;20812;-68
2021/06/08 06:17:58;;;;;;;34.50;31.20;;;;;;;20.46;94.92;96832.03;4989198;28;20531;-69
2021/06/08 06:20:24;;;;;;;34.83;31.30;;;;;;;20.44;94.86;96834.19;4995058;28;20448;-70
2021/06/08 06:22:50;;;;;;;38.77;34.77;;;;;;;20.44;94.81;96837.66;4994929;28;20415;-68
2021/06/08 06:25:16;;;;;;;38.67;33.80;;;;;;;20.53;94.50;96832.53;4994807;28;20427;-69
2021/06/08 06:27:42;;;;;;;34.80;31.30;;;;;;;20.54;94.25;96833.34;4994852;28;20420;-70
2021/06/08 06:30:11;;;;;;;38.80;34.73;;;;;;;20.48;94.39;96837.91;4994417;28;20181;-69
2021/06/08 06:32:37;;;;;;;35.23;31.43;;;;;;;20.51;94.27;96837.34;4994526;28;20485;-68
2021/06/08 06:35:08;;;;;;;37.33;33.33;;;;;;;20.52;94.21;96835.47;4995075;28;20486;-69
2021/06/08 06:37:36;;;;;;;37.57;33.60;;;;;;;20.47;94.36;96839.00;4994066;28;20438;-70
2021/06/08 06:40:05;;;;;;;38.10;34.00;;;;;;;20.49;94.12;96840.28;4994973;28;20404;-69
2021/06/08 06:42:36;;;;;;;41.03;35.90;;;;;;;20.51;94.19;96837.34;4994193;28;20918;-70
2021/06/08 06:45:03;;;;;;;37.07;33.03;;;;;;;20.48;94.17;96846.72;4994972;28;20926;-69
2021/06/08 06:47:30;;;;;;;36.00;32.23;;;;;;;20.33;94.35;96849.47;4994678;28;20917;-68
2021/06/08 06:49:56;;;;;;;33.90;30.30;;;;;;;20.35;94.84;96841.19;4994948;28;20946;-68
2021/06/08 06:52:22;;;;;;;37.27;33.23;;;;;;;20.38;94.99;96846.00;4992219;28;20433;-69
2021/06/08 06:54:47;;;;;;;38.70;34.33;;;;;;;20.42;94.77;96847.81;4993622;28;20233;-69
2021/06/08 06:57:13;;;;;;;33.87;30.47;;;;;;;20.46;94.63;96848.88;4994357;28;20196;-70
2021/06/08 06:59:39;;;;;;;36.03;32.33;;;;;;;20.44;94.82;96848.34;4994743;28;20176;-69
2021/06/08 07:02:05;;;;;;;35.07;31.37;;;;;;;20.37;94.88;96852.38;4994143;28;20268;-69
2021/06/08 07:04:32;;;;;;;37.67;33.57;;;;;;;20.46;94.73;96854.22;4994518;28;20429;-69
2021/06/08 07:06:58;;;;;;;34.87;31.27;;;;;;;20.45;94.67;96857.94;4994339;28;20416;-72
2021/06/08 07:09:27;;;;;;;35.80;31.73;;;;;;;20.53;94.53;96845.09;4976271;28;20428;-69
2021/06/08 07:11:54;;;;;;;38.90;34.70;;;;;;;20.54;94.31;96850.16;4994084;28;20531;-70
2021/06/08 07:14:20;;;;;;;35.07;31.27;;;;;;;20.54;93.87;96854.69;4993429;28;20808;-68
2021/06/08 07:16:48;;;;;;;38.33;34.23;;;;;;;20.49;94.59;96853.66;4993912;28;20905;-69
2021/06/08 07:19:14;;;;;;;33.60;29.60;;;;;;;20.58;94.02;96855.75;4994536;28;20404;-69
2021/06/08 07:21:42;;;;;;;40.53;34.03;;;;;;;20.66;93.97;96852.47;4993268;28;20559;-71
2021/06/08 07:24:09;;;;;;;31.47;28.33;;;;;;;20.69;93.94;96850.03;4992319;28;20432;-68
2021/06/08 07:26:37;;;;;;;38.97;33.70;;;;;;;20.59;94.37;96854.66;4994628;28;20412;-69
2021/06/08 07:29:03;;;;;;;37.40;33.60;;;;;;;20.57;93.91;96851.47;5013832;28;20455;-69
2021/06/08 07:31:51;;;;;;;36.30;32.33;;;;;;;20.66;94.11;96855.94;5013681;28;20882;-69
2021/06/08 07:34:41;;;;;;;37.37;32.07;;;;;;;20.67;93.76;96854.09;4974201;28;20476;-69
2021/06/08 07:37:14;;;;;;;34.60;30.93;;;;;;;20.73;93.59;96853.75;4977963;28;20424;-67
2021/06/08 07:39:52;;;;;;;34.80;29.67;;;;;;;20.73;93.53;96859.09;4993539;28;20435;-65
2021/06/08 07:42:30;;;;;;;36.90;30.67;;;;;;;20.78;93.66;96859.06;4988046;28;20425;-70
2021/06/08 07:45:08;;;;;;;32.00;28.80;;;;;;;20.84;93.54;96860.63;4989825;28;20911;-65
2021/06/08 07:47:35;;;;;;;36.43;32.30;;;;;;;20.87;93.49;96860.06;4993842;28;20628;-70
2021/06/08 07:50:05;;;;;;;35.93;32.23;;;;;;;20.91;93.06;96862.97;4993882;28;20499;-69
2021/06/08 07:52:31;;;;;;;38.40;34.40;;;;;;;20.93;93.15;96855.50;4993644;28;20907;-70
2021/06/08 07:54:58;;;;;;;39.87;35.60;;;;;;;20.92;92.64;96861.94;4985134;28;20460;-67
2021/06/08 07:57:24;;;;;;;34.73;30.77;;;;;;;20.91;92.54;96855.78;4985165;28;20570;-69
2021/06/08 07:59:50;;;;;;;35.73;31.93;;;;;;;20.94;92.54;96857.09;4966414;28;20427;-65
2021/06/08 08:02:24;;;;;;;34.27;30.73;;;;;;;20.96;92.53;96861.06;4995533;28;20777;-65
2021/06/08 08:04:51;;;;;;;35.77;31.87;;;;;;;21.01;92.32;96863.75;5003819;28;20494;-67
2021/06/08 08:07:21;;;;;;;37.67;33.63;;;;;;;21.03;92.02;96860.81;4993100;28;20424;-66
2021/06/08 08:09:46;;;;;;;37.23;33.40;;;;;;;20.97;91.94;96867.22;4993470;28;20431;-65
2021/06/08 08:12:13;;;;;;;36.97;33.07;;;;;;;21.02;91.87;96861.88;5001150;28;20519;-67
2021/06/08 08:14:41;;;;;;;37.20;33.40;;;;;;;21.07;91.66;96869.88;4992778;28;20209;-65
2021/06/08 08:17:07;;;;;;;37.90;33.93;;;;;;;21.10;91.62;96870.09;4974396;28;20409;-65
2021/06/08 08:19:32;;;;;;;36.93;33.13;;;;;;;21.12;91.35;96867.97;4976450;28;20796;-68
2021/06/08 08:21:58;;;;;;;36.13;32.67;;;;;;;21.11;91.21;96862.88;4981793;28;20516;-66
2021/06/08 08:24:23;;;;;;;33.63;30.27;;;;;;;21.15;91.22;96870.06;4983349;28;20190;-66
2021/06/08 08:26:48;;;;;;;38.93;35.00;;;;;;;21.22;90.93;96867.06;4990643;28;20264;-69
2021/06/08 08:29:14;;;;;;;34.40;31.07;;;;;;;21.21;90.36;96865.47;4975008;28;20186;-68
2021/06/08 08:31:39;;;;;;;40.83;36.77;;;;;;;21.17;90.61;96867.91;4993222;28;20197;-68
2021/06/08 08:34:05;;;;;;;36.27;32.57;;;;;;;21.11;89.24;96871.69;4993647;28;20205;-72
2021/06/08 08:36:35;;;;;;;38.67;34.73;;;;;;;21.07;89.69;96867.97;4991724;28;20211;-71
2021/06/08 08:39:00;;;;;;;34.93;31.60;;;;;;;21.02;90.66;96878.72;4993157;28;20543;-70
2021/06/08 08:41:27;;;;;;;32.77;29.60;;;;;;;21.09;90.57;96876.50;4993168;28;20560;-71
2021/06/08 08:43:53;;;;;;;33.93;30.53;;;;;;;21.09;90.43;96876.50;4993026;28;20200;-68
2021/06/08 08:46:20;;;;;;;33.27;29.87;;;;;;;21.12;90.41;96883.19;4993651;28;20409;-68
2021/06/08 08:48:47;;;;;;;38.90;35.10;;;;;;;21.11;90.82;96887.72;4984180;28;20189;-68
2021/06/08 08:51:16;;;;;;;32.13;29.03;;;;;;;21.18;90.19;96877.50;4974208;28;20433;-67
2021/06/08 08:53:45;;;;;;;40.53;36.13;;;;;;;21.15;90.09;96882.63;4973646;28;20434;-68
2021/06/08 08:56:13;;;;;;;32.80;29.50;;;;;;;21.17;89.63;96888.50;4985546;28;20451;-68
2021/06/08 08:58:40;;;;;;;35.73;32.03;;;;;;;21.12;90.32;96891.22;4993567;28;20423;-68
2021/06/08 09:01:06;;;;;;;37.70;33.80;;;;;;;21.08;90.06;96884.81;4992603;28;21034;-66
2021/06/08 09:03:32;;;;;;;37.10;33.23;;;;;;;21.11;89.33;96886.91;4978145;28;20445;-68
2021/06/08 09:05:59;;;;;;;40.40;35.27;;;;;;;21.10;89.61;96886.16;4987240;28;20444;-67
2021/06/08 09:08:25;;;;;;;41.10;35.70;;;;;;;21.13;89.63;96880.22;4973874;28;20181;-68
2021/06/08 09:10:53;;;;;;;40.20;35.87;;;;;;;21.08;89.22;96887.50;4990595;28;20443;-67
2021/06/08 09:13:18;;;;;;;38.00;34.30;;;;;;;21.01;89.75;96893.16;4992907;28;20510;-68
2021/06/08 09:15:44;;;;;;;33.80;30.50;;;;;;;21.16;89.64;96882.34;4985774;28;20543;-68
2021/06/08 09:18:11;;;;;;;38.70;34.77;;;;;;;21.31;89.67;96884.09;4991331;28;20186;-69
2021/06/08 09:20:36;;;;;;;39.53;35.70;;;;;;;21.27;89.08;96877.72;4976250;28;20600;-68
2021/06/08 09:23:07;;;;;;;33.20;29.97;;;;;;;21.39;88.90;96883.50;4977989;28;20455;-67
2021/06/08 09:25:42;;;;;;;34.00;30.80;;;;;;;21.43;89.64;96873.84;4992723;28;20679;-69
2021/06/08 09:28:30;;;;;;;36.40;32.60;;;;;;;21.52;90.04;96882.03;4990322;28;20439;-66
2021/06/08 09:31:05;;;;;;;38.13;34.43;;;;;;;21.58;89.17;96886.28;4992927;28;20860;-71
2021/06/08 09:33:41;;;;;;;36.50;33.00;;;;;;;21.67;88.90;96884.56;4991742;28;20957;-67
2021/06/08 09:36:19;;;;;;;38.23;34.60;;;;;;;21.74;88.95;96888.50;4977341;28;20531;-71
2021/06/08 09:39:10;;;;;;;37.03;33.53;;;;;;;21.82;88.59;96879.88;4982688;28;20982;-70
2021/06/08 09:41:43;;;;;;;37.27;33.63;;;;;;;21.83;88.46;96884.16;4978188;28;20460;-66
2021/06/08 09:44:14;;;;;;;36.07;32.53;;;;;;;21.78;88.20;96886.84;4990558;28;20993;-67
2021/06/08 09:46:46;;;;;;;39.37;35.47;;;;;;;21.82;88.34;96879.88;4988498;28;20451;-63
2021/06/08 09:49:14;;;;;;;39.63;35.63;;;;;;;21.87;88.08;96884.41;4983387;28;20475;-68
2021/06/08 09:51:53;;;;;;;38.07;34.37;;;;;;;21.95;88.08;96881.91;4993036;28;20447;-65
2021/06/08 09:54:24;;;;;;;38.23;34.53;;;;;;;22.00;87.93;96878.34;4981970;28;20504;-67
2021/06/08 09:56:49;;;;;;;38.20;34.60;;;;;;;21.95;87.48;96878.41;4980113;28;20526;-64
2021/06/08 09:59:15;;;;;;;38.00;34.10;;;;;;;21.95;87.57;96878.41;4981968;28;20487;-66
2021/06/08 10:01:40;;;;;;;39.50;35.77;;;;;;;22.04;87.47;96876.69;5006280;28;20220;-66
2021/06/08 10:04:05;;;;;;;37.23;33.80;;;;;;;22.10;86.94;96873.66;5007841;28;20186;-67
2021/06/08 10:06:38;;;;;;;36.40;32.87;;;;;;;22.18;86.80;96875.72;4994289;28;20196;-68
2021/06/08 10:09:09;;;;;;;38.43;34.80;;;;;;;22.11;86.82;96880.63;4979712;28;20193;-62
2021/06/08 10:11:37;;;;;;;38.60;34.90;;;;;;;22.24;87.68;96879.16;4991055;28;20841;-69
2021/06/08 10:14:11;;;;;;;36.57;33.27;;;;;;;22.47;87.20;96876.44;4990925;28;20476;-64
2021/06/08 10:16:37;;;;;;;39.07;35.30;;;;;;;22.45;85.88;96878.59;4989787;28;20436;-70
2021/06/08 10:19:04;;;;;;;37.50;33.83;;;;;;;22.50;86.30;96881.19;4987253;28;21106;-63
2021/06/08 10:21:40;;;;;;;38.03;34.63;;;;;;;22.71;85.59;96884.44;4996338;28;20439;-67
2021/06/08 10:24:14;;;;;;;36.70;33.40;;;;;;;22.72;83.00;96877.97;4992341;28;20522;-65
2021/06/08 10:26:45;;;;;;;37.37;34.00;;;;;;;22.95;82.45;96887.84;4989518;28;20444;-63
2021/06/08 10:29:11;;;;;;;33.07;30.17;;;;;;;23.06;82.26;96883.13;4986390;28;20483;-64
2021/06/08 10:31:38;;;;;;;36.30;33.07;;;;;;;23.10;82.12;96881.47;4984271;28;20927;-64
2021/06/08 10:34:06;;;;;;;33.20;30.30;;;;;;;23.16;81.66;96886.44;4987680;28;20502;-67
2021/06/08 10:36:33;;;;;;;36.00;32.70;;;;;;;23.16;79.30;96886.44;4985455;28;20506;-66
2021/06/08 10:38:59;;;;;;;37.53;34.20;;;;;;;23.20;79.86;96882.09;4986480;28;20766;-73
2021/06/08 10:41:25;;;;;;;34.97;31.73;;;;;;;23.12;79.89;96882.75;4990909;28;20431;-75
2021/06/08 10:43:51;;;;;;;36.07;32.67;;;;;;;23.25;80.08;96878.53;4974133;28;20924;-73
2021/06/08 10:46:31;;;;;;;35.20;32.10;;;;;;;23.20;80.38;96875.94;4991796;28;20174;-61
2021/06/08 10:48:57;;;;;;;33.20;30.30;;;;;;;23.25;80.37;96879.31;4987578;28;20182;-66
2021/06/08 10:51:23;;;;;;;34.03;30.93;;;;;;;23.35;79.77;96870.34;4991754;28;20488;-73
2021/06/08 10:53:55;;;;;;;37.10;33.83;;;;;;;23.43;78.44;96872.34;4991026;28;20289;-67
2021/06/08 10:56:29;;;;;;;30.97;28.37;;;;;;;23.55;78.49;96877.25;4977328;28;20422;-69
2021/06/08 10:58:56;;;;;;;34.00;30.90;;;;;;;23.54;78.27;96876.44;4994368;28;20417;-70
2021/06/08 11:01:31;;;;;;;33.00;29.97;;;;;;;23.54;78.10;96872.97;4994535;28;20409;-67
2021/06/08 11:03:58;;;;;;;31.50;28.60;;;;;;;23.60;78.83;96871.78;4994576;28;20428;-67
2021/06/08 11:06:51;;;;;;;35.67;32.27;;;;;;;23.71;78.31;96865.94;4994349;28;20909;-70
2021/06/08 11:09:37;;;;;;;32.60;29.70;;;;;;;23.77;78.05;96869.34;4994448;28;20389;-69
2021/06/08 11:12:07;;;;;;;30.67;27.77;;;;;;;23.79;78.58;96872.53;4974889;28;20772;-68
2021/06/08 11:17:05;;;;;;;32.27;29.47;;;;;;;23.83;78.39;96870.81;4994539;28;20499;-68
2021/06/08 11:19:55;;;;;;;33.80;30.87;;;;;;;23.84;77.24;96872.44;4976575;28;20623;-69
2021/06/08 11:22:24;;;;;;;31.70;28.80;;;;;;;23.82;78.31;96870.03;4984075;28;20432;-69
2021/06/08 11:24:51;;;;;;;29.53;27.13;;;;;;;23.92;78.34;96869.84;4994351;28;20417;-68